createdAt,value
2023-03-01T00:02:08.683Z,29.83
2023-03-01T00:06:10.426Z,31.60
2023-03-01T00:10:12.747Z,27.03
2023-03-01T00:14:13.466Z,28.20
2023-03-01T00:18:16.699Z,26.30
2023-03-01T00:22:17.078Z,28.37
2023-03-01T00:26:18.385Z,32.67
2023-03-01T00:30:19.511Z,28.30
2023-03-01T00:34:23.035Z,29.17
2023-03-01T00:38:23.282Z,34.90
2023-03-01T00:42:24.407Z,35.57
2023-03-01T00:46:27.549Z,34.57
2023-03-01T00:50:31.320Z,31.40
2023-03-01T00:54:32.041Z,29.87
2023-03-01T00:58:32.947Z,32.07
2023-03-01T01:02:33.642Z,28.57
2023-03-01T01:06:43.494Z,33.50
2023-03-01T01:10:43.928Z,32.50
2023-03-01T01:14:44.541Z,32.17
2023-03-01T01:18:44.856Z,32.13
2023-03-01T01:22:47.873Z,31.00
2023-03-01T01:26:49.175Z,35.00
2023-03-01T01:30:49.701Z,30.97
2023-03-01T01:34:50.455Z,30.90
2023-03-01T01:38:54.436Z,27.70
2023-03-01T01:42:54.869Z,28.37
2023-03-01T01:47:00.024Z,30.93
2023-03-01T01:51:05.063Z,32.53
2023-03-01T01:55:15.938Z,32.00
2023-03-01T01:59:18.188Z,33.37
2023-03-01T02:03:26.778Z,33.97
2023-03-01T02:07:29.804Z,32.43
2023-03-01T02:11:38.812Z,35.20
2023-03-01T02:15:45.151Z,30.13
2023-03-01T02:20:03.393Z,31.13
2023-03-01T02:24:22.563Z,32.17
2023-03-01T02:28:33.663Z,31.53
2023-03-01T02:32:34.919Z,32.17
2023-03-01T02:36:40.946Z,33.97
2023-03-01T02:40:45.964Z,35.67
2023-03-01T02:44:49.238Z,35.80
2023-03-01T02:48:53.906Z,30.83
2023-03-01T02:53:05.309Z,37.33
2023-03-01T02:57:06.211Z,32.60
2023-03-01T03:01:11.136Z,35.67
2023-03-01T03:05:16.847Z,30.57
2023-03-01T03:09:19.848Z,37.13
2023-03-01T03:13:20.450Z,31.80
2023-03-01T03:17:24.297Z,34.97
2023-03-01T03:21:25.048Z,34.50
2023-03-01T03:25:27.107Z,36.63
2023-03-01T03:29:27.769Z,31.40
2023-03-01T03:33:31.240Z,34.87
2023-03-01T03:37:50.096Z,31.37
2023-03-01T03:41:50.698Z,31.27
2023-03-01T03:45:52.776Z,35.13
2023-03-01T03:49:55.963Z,33.63
2023-03-01T03:53:56.342Z,32.40
2023-03-01T03:57:56.792Z,32.73
2023-03-01T04:01:59.557Z,34.27
2023-03-01T04:06:06.387Z,30.40
2023-03-01T04:10:07.635Z,29.23
2023-03-01T04:14:08.326Z,34.20
2023-03-01T04:18:10.107Z,31.80
2023-03-01T04:22:18.533Z,30.93
2023-03-01T04:26:19.129Z,32.03
2023-03-01T04:30:20.293Z,32.03
2023-03-01T04:34:20.744Z,34.50
2023-03-01T04:38:24.993Z,30.77
2023-03-01T04:42:28.148Z,31.57
2023-03-01T04:46:29.063Z,30.73
2023-03-01T04:50:29.861Z,32.43
2023-03-01T04:54:33.262Z,29.77
2023-03-01T04:58:33.607Z,31.30
2023-03-01T05:02:34.443Z,32.53
2023-03-01T05:06:35.410Z,38.07
2023-03-01T05:10:40.307Z,34.90
2023-03-01T05:14:41.617Z,30.30
2023-03-01T05:18:44.339Z,34.80
2023-03-01T05:22:45.163Z,32.97
2023-03-01T05:26:49.555Z,33.27
2023-03-01T05:30:52.838Z,38.80
2023-03-01T05:34:53.450Z,48.17
2023-03-01T05:38:54.068Z,33.57
2023-03-01T05:43:00.276Z,36.90
2023-03-01T05:47:01.564Z,59.57
2023-03-01T05:51:04.521Z,57.10
2023-03-01T05:55:04.831Z,38.33
2023-03-01T05:59:09.450Z,34.87
2023-03-01T06:03:10.228Z,39.80
2023-03-01T06:07:10.748Z,38.70
2023-03-01T06:11:11.153Z,37.70
2023-03-01T06:15:16.615Z,35.20
2023-03-01T06:19:17.313Z,36.20
2023-03-01T06:23:17.519Z,37.20
2023-03-01T06:27:18.447Z,35.93
2023-03-01T06:31:21.916Z,35.53
2023-03-01T06:35:23.737Z,47.20
2023-03-01T06:39:24.371Z,34.80
2023-03-01T06:43:25.010Z,32.03
2023-03-01T06:47:28.217Z,34.77
2023-03-01T06:51:29.596Z,34.47
2023-03-01T06:55:30.994Z,30.43
2023-03-01T06:59:32.017Z,33.93
2023-03-01T07:03:35.416Z,35.23
2023-03-01T07:07:36.163Z,33.33
2023-03-01T07:11:37.138Z,33.37
2023-03-01T07:15:37.537Z,32.20
2023-03-01T07:19:40.847Z,29.93
2023-03-01T07:23:41.540Z,31.43
2023-03-01T07:27:41.946Z,29.60
2023-03-01T07:31:42.546Z,30.23
2023-03-01T07:35:45.543Z,26.80
2023-03-01T07:39:46.469Z,25.03
2023-03-01T07:43:46.932Z,28.83
2023-03-01T07:47:47.841Z,28.33
2023-03-01T07:51:51.259Z,29.30
2023-03-01T07:55:51.804Z,26.97
2023-03-01T07:59:52.939Z,28.33
2023-03-01T08:03:53.961Z,26.90
2023-03-01T08:07:57.156Z,25.03
2023-03-01T08:11:58.314Z,29.37
2023-03-01T08:16:04.367Z,31.50
2023-03-01T08:20:05.458Z,30.07
2023-03-01T08:24:11.377Z,28.47
2023-03-01T08:28:11.799Z,34.27
2023-03-01T08:32:12.565Z,34.07
2023-03-01T08:36:13.557Z,34.07
2023-03-01T08:40:18.422Z,31.53
2023-03-01T08:44:22.043Z,35.10
2023-03-01T08:48:22.398Z,35.97
2023-03-01T08:52:23.582Z,33.07
2023-03-01T08:56:26.586Z,30.20
2023-03-01T09:00:27.389Z,32.97
2023-03-01T09:04:28.293Z,28.67
2023-03-01T09:08:29.046Z,29.93
2023-03-01T09:12:31.994Z,31.17
2023-03-01T09:16:37.124Z,29.63
2023-03-01T09:20:37.816Z,29.50
2023-03-01T09:24:38.664Z,29.10
2023-03-01T09:28:42.895Z,34.43
2023-03-01T09:32:43.794Z,29.63
2023-03-01T09:36:44.475Z,28.50
2023-03-01T09:40:49.231Z,27.37
2023-03-01T09:44:59.840Z,29.57
2023-03-01T09:49:05.884Z,24.33
2023-03-01T09:53:11.487Z,26.23
2023-03-01T09:57:24.541Z,29.80
2023-03-01T10:01:48.152Z,23.90
2023-03-01T10:06:01.138Z,29.10
2023-03-01T10:10:05.760Z,24.60
2023-03-01T10:14:19.472Z,26.33
2023-03-01T10:18:29.467Z,26.13
2023-03-01T10:22:33.446Z,23.27
2023-03-01T10:26:52.030Z,24.20
2023-03-01T10:30:52.697Z,23.13
2023-03-01T10:34:58.335Z,21.80
2023-03-01T10:39:01.594Z,22.77
2023-03-01T10:43:06.492Z,22.40
2023-03-01T10:47:07.389Z,24.40
2023-03-01T10:51:24.689Z,22.00
2023-03-01T10:55:36.773Z,22.30
2023-03-01T10:59:40.589Z,22.27
2023-03-01T11:03:42.729Z,22.92
2023-03-01T11:07:57.604Z,25.60
2023-03-01T11:12:00.715Z,22.35
2023-03-01T11:16:08.554Z,20.73
2023-03-01T11:20:30.182Z,20.58
2023-03-01T11:24:43.703Z,20.63
2023-03-01T11:28:49.293Z,19.10
2023-03-01T11:33:01.326Z,20.92
2023-03-01T11:37:11.769Z,19.33
2023-03-01T11:41:23.538Z,18.48
2023-03-01T11:45:29.854Z,18.60
2023-03-01T11:50:01.518Z,16.70
2023-03-01T11:54:17.920Z,18.80
2023-03-01T11:58:47.612Z,23.42
2023-03-01T12:03:25.536Z,19.98
2023-03-01T12:07:44.035Z,19.05
2023-03-01T12:12:04.398Z,18.65
2023-03-01T12:16:45.760Z,18.85
2023-03-01T12:21:02.219Z,19.38
2023-03-01T12:25:29.846Z,21.95
2023-03-01T12:29:35.619Z,21.27
2023-03-01T12:33:57.718Z,21.38
2023-03-01T12:38:06.497Z,20.50
2023-03-01T12:42:23.084Z,20.63
2023-03-01T12:46:39.041Z,20.33
2023-03-01T12:50:48.188Z,20.77
2023-03-01T12:54:52.094Z,22.05
2023-03-01T12:59:09.243Z,25.02
2023-03-01T13:03:28.841Z,26.15
2023-03-01T13:07:40.484Z,23.15
2023-03-01T13:11:44.934Z,21.88
2023-03-01T13:15:48.818Z,23.27
2023-03-01T13:20:02.396Z,21.52
2023-03-01T13:24:05.904Z,19.60
2023-03-01T13:28:50.694Z,22.05
2023-03-01T13:32:51.554Z,21.63
2023-03-01T13:36:53.379Z,22.17
2023-03-01T13:41:06.772Z,20.05
2023-03-01T13:45:19.529Z,19.83
2023-03-01T13:49:25.100Z,19.83
2023-03-01T13:53:35.293Z,21.00
2023-03-01T13:57:43.201Z,21.77
2023-03-01T14:01:44.500Z,18.73
2023-03-01T14:05:47.510Z,19.80
2023-03-01T14:09:51.851Z,20.17
2023-03-01T14:14:20.958Z,18.55
2023-03-01T14:18:32.040Z,19.88
2023-03-01T14:22:37.330Z,18.25
2023-03-01T14:26:44.058Z,20.58
2023-03-01T14:30:49.776Z,20.17
2023-03-01T14:34:52.978Z,17.90
2023-03-01T14:38:53.840Z,18.67
2023-03-01T14:42:55.775Z,20.48
2023-03-01T14:47:03.429Z,18.50
2023-03-01T14:51:04.058Z,18.52
2023-03-01T14:55:09.635Z,24.50
2023-03-01T14:59:13.410Z,20.17
2023-03-01T15:03:29.045Z,23.10
2023-03-01T15:07:35.377Z,20.23
2023-03-01T15:11:38.197Z,22.97
2023-03-01T15:15:48.846Z,22.43
2023-03-01T15:19:53.478Z,23.33
2023-03-01T15:23:58.505Z,22.53
2023-03-01T15:28:02.484Z,22.03
2023-03-01T15:32:06.060Z,23.57
2023-03-01T15:36:46.788Z,24.63
2023-03-01T15:40:54.507Z,23.50
2023-03-01T15:45:12.132Z,23.93
2023-03-01T15:49:54.531Z,22.83
2023-03-01T15:54:05.976Z,22.00
2023-03-01T15:58:13.708Z,21.63
2023-03-01T16:02:15.052Z,22.50
2023-03-01T16:06:16.459Z,23.83
2023-03-01T16:10:20.421Z,22.43
2023-03-01T16:14:23.480Z,26.40
2023-03-01T16:18:24.509Z,22.67
2023-03-01T16:22:26.352Z,22.10
2023-03-01T16:26:33.532Z,21.77
2023-03-01T16:30:37.048Z,27.13
2023-03-01T16:34:37.558Z,29.23
2023-03-01T16:38:38.353Z,26.30
2023-03-01T16:42:41.661Z,22.20
2023-03-01T16:46:41.983Z,28.03
2023-03-01T16:50:43.155Z,26.17
2023-03-01T16:54:43.809Z,27.80
2023-03-01T16:58:48.064Z,29.33
2023-03-01T17:02:48.563Z,29.03
2023-03-01T17:06:50.298Z,33.50
2023-03-01T17:10:50.687Z,27.97
2023-03-01T17:14:54.810Z,30.50
2023-03-01T17:18:55.230Z,25.60
2023-03-01T17:22:55.994Z,27.77
2023-03-01T17:26:58.653Z,33.07
2023-03-01T17:31:03.831Z,37.20
2023-03-01T17:35:05.151Z,33.70
2023-03-01T17:39:07.847Z,33.60
2023-03-01T17:43:08.509Z,41.60
2023-03-01T17:47:18.484Z,31.77
2023-03-01T17:51:19.265Z,33.00
2023-03-01T17:55:20.084Z,32.80
2023-03-01T17:59:21.353Z,34.37
2023-03-01T18:03:24.907Z,35.90
2023-03-01T18:07:25.588Z,35.87
2023-03-01T18:11:28.754Z,35.87
2023-03-01T18:15:29.639Z,38.70
2023-03-01T18:19:33.705Z,45.30
2023-03-01T18:23:37.999Z,33.87
2023-03-01T18:27:41.212Z,36.73
2023-03-01T18:31:43.428Z,38.43
2023-03-01T18:35:48.534Z,30.70
2023-03-01T18:39:49.129Z,39.07
2023-03-01T18:43:51.501Z,34.63
2023-03-01T18:47:52.665Z,37.43
2023-03-01T18:52:02.410Z,34.03
2023-03-01T18:56:07.483Z,34.97
2023-03-01T19:00:10.287Z,37.30
2023-03-01T19:04:11.491Z,38.40
2023-03-01T19:08:16.192Z,36.87
2023-03-01T19:12:18.133Z,34.83
2023-03-01T19:16:24.099Z,35.33
2023-03-01T19:20:25.145Z,35.50
2023-03-01T19:24:32.824Z,36.03
2023-03-01T19:28:37.541Z,36.37
2023-03-01T19:32:42.059Z,44.67
2023-03-01T19:36:44.917Z,45.27
2023-03-01T19:40:50.219Z,45.00
2023-03-01T19:44:57.259Z,43.33
2023-03-01T19:49:01.415Z,41.30
2023-03-01T19:53:03.285Z,39.23
2023-03-01T19:57:09.224Z,40.50
2023-03-01T20:01:19.558Z,36.10
2023-03-01T20:05:25.648Z,38.77
2023-03-01T20:09:26.476Z,39.67
2023-03-01T20:13:34.400Z,40.30
2023-03-01T20:17:37.110Z,41.30
2023-03-01T20:21:40.805Z,41.00
2023-03-01T20:25:45.041Z,35.17
2023-03-01T20:29:52.741Z,40.57
2023-03-01T20:33:53.965Z,35.30
2023-03-01T20:37:56.666Z,36.03
2023-03-01T20:41:57.744Z,34.47
2023-03-01T20:46:05.814Z,38.33
2023-03-01T20:50:08.871Z,36.13
2023-03-01T20:54:12.790Z,34.93
2023-03-01T20:58:14.936Z,41.43
2023-03-01T21:02:18.244Z,35.03
2023-03-01T21:06:19.448Z,37.37
2023-03-01T21:10:21.592Z,36.77
2023-03-01T21:14:26.407Z,36.63
2023-03-01T21:18:30.686Z,43.37
2023-03-01T21:22:32.966Z,36.90
2023-03-01T21:26:34.745Z,36.37
2023-03-01T21:30:39.899Z,38.20
2023-03-01T21:34:44.060Z,39.80
2023-03-01T21:38:49.128Z,39.03
2023-03-01T21:42:49.814Z,44.57
2023-03-01T21:46:53.755Z,44.63
2023-03-01T21:51:02.737Z,37.33
2023-03-01T21:55:05.085Z,37.53
2023-03-01T21:59:10.049Z,38.77
2023-03-01T22:03:12.656Z,36.43
2023-03-01T22:07:16.598Z,35.57
2023-03-01T22:11:21.282Z,38.13
2023-03-01T22:15:22.231Z,37.77
2023-03-01T22:19:27.312Z,36.97
2023-03-01T22:23:33.390Z,37.47
2023-03-01T22:27:34.451Z,38.07
2023-03-01T22:31:34.915Z,35.87
2023-03-01T22:35:35.273Z,37.10
2023-03-01T22:39:38.776Z,38.80
2023-03-01T22:43:39.890Z,34.93
2023-03-01T22:47:40.755Z,38.40
2023-03-01T22:51:44.662Z,40.33
2023-03-01T22:55:48.094Z,39.87
2023-03-01T22:59:49.733Z,38.77
2023-03-01T23:03:53.465Z,36.40
2023-03-01T23:07:53.720Z,35.40
2023-03-01T23:11:58.440Z,33.37
2023-03-01T23:16:02.046Z,36.37
2023-03-01T23:20:07.318Z,34.90
2023-03-01T23:24:09.263Z,34.83
2023-03-01T23:28:12.427Z,35.03
2023-03-01T23:32:15.449Z,37.07
2023-03-01T23:36:26.073Z,40.77
2023-03-01T23:40:28.256Z,36.47
2023-03-01T23:44:31.483Z,32.90
2023-03-01T23:48:32.347Z,32.07
2023-03-01T23:52:40.124Z,31.77
2023-03-01T23:56:44.086Z,30.97
